sensor_id;sensor_type;location;lat;lon;timestamp;P1;durP1;ratioP1;P2;durP2;ratioP2
20114;SDS011;10218;42.874;25.320;2022-08-05T00:00:21;4.47;;;4.03;;
20114;SDS011;10218;42.874;25.320;2022-08-05T00:02:49;5.73;;;3.90;;
20114;SDS011;10218;42.874;25.320;2022-08-05T00:05:20;4.23;;;3.70;;
20114;SDS011;10218;42.874;25.320;2022-08-05T00:07:48;4.63;;;4.20;;
20114;SDS011;10218;42.874;25.320;2022-08-05T00:10:15;4.40;;;4.00;;
20114;SDS011;10218;42.874;25.320;2022-08-05T00:12:42;9.77;;;3.90;;
20114;SDS011;10218;42.874;25.320;2022-08-05T00:15:10;4.67;;;3.90;;
20114;SDS011;10218;42.874;25.320;2022-08-05T00:17:37;4.40;;;4.00;;
20114;SDS011;10218;42.874;25.320;2022-08-05T00:20:04;5.07;;;4.13;;
20114;SDS011;10218;42.874;25.320;2022-08-05T00:22:32;6.07;;;3.97;;
20114;SDS011;10218;42.874;25.320;2022-08-05T00:24:59;5.20;;;4.00;;
20114;SDS011;10218;42.874;25.320;2022-08-05T00:27:26;6.00;;;4.00;;
20114;SDS011;10218;42.874;25.320;2022-08-05T00:29:56;8.40;;;4.03;;
20114;SDS011;10218;42.874;25.320;2022-08-05T00:32:23;5.10;;;4.20;;
20114;SDS011;10218;42.874;25.320;2022-08-05T00:34:50;4.90;;;4.40;;
20114;SDS011;10218;42.874;25.320;2022-08-05T00:37:17;7.80;;;3.93;;
20114;SDS011;10218;42.874;25.320;2022-08-05T00:39:45;4.73;;;4.07;;
20114;SDS011;10218;42.874;25.320;2022-08-05T00:42:12;5.00;;;4.30;;
20114;SDS011;10218;42.874;25.320;2022-08-05T00:44:42;6.47;;;4.33;;
20114;SDS011;10218;42.874;25.320;2022-08-05T00:47:10;6.60;;;4.27;;
20114;SDS011;10218;42.874;25.320;2022-08-05T00:49:37;8.47;;;4.50;;
20114;SDS011;10218;42.874;25.320;2022-08-05T00:52:04;6.67;;;4.33;;
20114;SDS011;10218;42.874;25.320;2022-08-05T00:54:31;5.17;;;4.27;;
20114;SDS011;10218;42.874;25.320;2022-08-05T00:56:58;4.90;;;4.23;;
20114;SDS011;10218;42.874;25.320;2022-08-05T00:59:25;4.53;;;3.90;;
20114;SDS011;10218;42.874;25.320;2022-08-05T01:01:52;8.13;;;3.83;;
20114;SDS011;10218;42.874;25.320;2022-08-05T01:04:20;4.60;;;3.87;;
20114;SDS011;10218;42.874;25.320;2022-08-05T01:06:47;9.33;;;4.00;;
20114;SDS011;10218;42.874;25.320;2022-08-05T01:09:14;4.93;;;4.10;;
20114;SDS011;10218;42.874;25.320;2022-08-05T01:11:41;5.03;;;4.10;;
20114;SDS011;10218;42.874;25.320;2022-08-05T01:17:07;4.33;;;3.93;;
20114;SDS011;10218;42.874;25.320;2022-08-05T01:27:59;6.47;;;4.70;;
20114;SDS011;10218;42.874;25.320;2022-08-05T01:30:40;6.13;;;4.60;;
20114;SDS011;10218;42.874;25.320;2022-08-05T01:33:13;9.13;;;4.43;;
20114;SDS011;10218;42.874;25.320;2022-08-05T01:35:42;5.57;;;4.77;;
20114;SDS011;10218;42.874;25.320;2022-08-05T01:38:13;5.30;;;4.30;;
20114;SDS011;10218;42.874;25.320;2022-08-05T01:40:42;7.67;;;4.60;;
20114;SDS011;10218;42.874;25.320;2022-08-05T01:43:11;6.10;;;4.50;;
20114;SDS011;10218;42.874;25.320;2022-08-05T01:45:40;7.00;;;4.40;;
20114;SDS011;10218;42.874;25.320;2022-08-05T01:48:07;5.77;;;4.50;;
20114;SDS011;10218;42.874;25.320;2022-08-05T01:50:36;4.43;;;4.03;;
20114;SDS011;10218;42.874;25.320;2022-08-05T01:53:06;6.07;;;3.97;;
20114;SDS011;10218;42.874;25.320;2022-08-05T01:55:38;5.17;;;4.00;;
20114;SDS011;10218;42.874;25.320;2022-08-05T01:58:08;5.00;;;4.20;;
20114;SDS011;10218;42.874;25.320;2022-08-05T02:00:43;5.00;;;4.27;;
20114;SDS011;10218;42.874;25.320;2022-08-05T02:03:32;5.77;;;4.23;;
20114;SDS011;10218;42.874;25.320;2022-08-05T02:06:02;4.60;;;4.10;;
20114;SDS011;10218;42.874;25.320;2022-08-05T02:08:31;5.10;;;3.87;;
20114;SDS011;10218;42.874;25.320;2022-08-05T02:11:12;8.57;;;4.23;;
20114;SDS011;10218;42.874;25.320;2022-08-05T02:13:49;6.93;;;4.60;;
20114;SDS011;10218;42.874;25.320;2022-08-05T02:16:26;5.17;;;4.60;;
20114;SDS011;10218;42.874;25.320;2022-08-05T02:19:05;4.63;;;4.13;;
20114;SDS011;10218;42.874;25.320;2022-08-05T02:21:41;5.60;;;4.47;;
20114;SDS011;10218;42.874;25.320;2022-08-05T02:24:16;5.03;;;4.30;;
20114;SDS011;10218;42.874;25.320;2022-08-05T02:26:46;6.87;;;4.30;;
20114;SDS011;10218;42.874;25.320;2022-08-05T02:29:19;6.53;;;4.50;;
20114;SDS011;10218;42.874;25.320;2022-08-05T02:31:48;5.97;;;4.50;;
20114;SDS011;10218;42.874;25.320;2022-08-05T02:34:17;5.53;;;4.37;;
20114;SDS011;10218;42.874;25.320;2022-08-05T02:36:48;5.60;;;4.63;;
20114;SDS011;10218;42.874;25.320;2022-08-05T02:39:20;6.37;;;4.60;;
20114;SDS011;10218;42.874;25.320;2022-08-05T02:41:49;5.60;;;4.60;;
20114;SDS011;10218;42.874;25.320;2022-08-05T02:44:18;5.93;;;4.40;;
20114;SDS011;10218;42.874;25.320;2022-08-05T02:46:49;7.03;;;4.83;;
20114;SDS011;10218;42.874;25.320;2022-08-05T02:49:17;7.47;;;4.73;;
20114;SDS011;10218;42.874;25.320;2022-08-05T02:51:45;5.27;;;4.47;;
20114;SDS011;10218;42.874;25.320;2022-08-05T02:54:13;6.50;;;4.63;;
20114;SDS011;10218;42.874;25.320;2022-08-05T02:56:41;6.10;;;4.27;;
20114;SDS011;10218;42.874;25.320;2022-08-05T02:59:09;6.03;;;4.73;;
20114;SDS011;10218;42.874;25.320;2022-08-05T03:01:38;5.40;;;4.40;;
20114;SDS011;10218;42.874;25.320;2022-08-05T03:04:08;5.40;;;4.60;;
20114;SDS011;10218;42.874;25.320;2022-08-05T03:06:40;9.27;;;4.20;;
20114;SDS011;10218;42.874;25.320;2022-08-05T03:09:11;6.20;;;4.97;;
20114;SDS011;10218;42.874;25.320;2022-08-05T03:11:40;7.00;;;4.33;;
20114;SDS011;10218;42.874;25.320;2022-08-05T03:14:09;7.60;;;4.83;;
20114;SDS011;10218;42.874;25.320;2022-08-05T03:16:36;5.97;;;4.60;;
20114;SDS011;10218;42.874;25.320;2022-08-05T03:19:04;7.40;;;4.53;;
20114;SDS011;10218;42.874;25.320;2022-08-05T03:21:31;7.30;;;4.27;;
20114;SDS011;10218;42.874;25.320;2022-08-05T03:23:58;5.43;;;4.40;;
20114;SDS011;10218;42.874;25.320;2022-08-05T03:26:27;6.70;;;4.87;;
20114;SDS011;10218;42.874;25.320;2022-08-05T03:28:54;6.83;;;4.80;;
20114;SDS011;10218;42.874;25.320;2022-08-05T03:31:21;7.53;;;5.10;;
20114;SDS011;10218;42.874;25.320;2022-08-05T03:33:51;5.73;;;4.43;;
20114;SDS011;10218;42.874;25.320;2022-08-05T03:36:19;4.87;;;4.37;;
20114;SDS011;10218;42.874;25.320;2022-08-05T03:38:46;7.50;;;4.47;;
20114;SDS011;10218;42.874;25.320;2022-08-05T03:41:14;7.27;;;4.50;;
20114;SDS011;10218;42.874;25.320;2022-08-05T03:43:42;6.27;;;4.33;;
20114;SDS011;10218;42.874;25.320;2022-08-05T03:46:09;5.87;;;4.57;;
20114;SDS011;10218;42.874;25.320;2022-08-05T03:48:36;7.53;;;4.90;;
20114;SDS011;10218;42.874;25.320;2022-08-05T03:51:09;6.33;;;4.80;;
20114;SDS011;10218;42.874;25.320;2022-08-05T03:53:47;8.70;;;4.80;;
20114;SDS011;10218;42.874;25.320;2022-08-05T03:59:08;7.20;;;4.73;;
20114;SDS011;10218;42.874;25.320;2022-08-05T04:01:41;7.63;;;4.77;;
20114;SDS011;10218;42.874;25.320;2022-08-05T04:04:14;6.80;;;4.83;;
20114;SDS011;10218;42.874;25.320;2022-08-05T04:06:41;6.03;;;4.97;;
20114;SDS011;10218;42.874;25.320;2022-08-05T04:09:10;6.63;;;4.60;;
20114;SDS011;10218;42.874;25.320;2022-08-05T04:11:38;6.17;;;4.63;;
20114;SDS011;10218;42.874;25.320;2022-08-05T04:14:05;6.93;;;5.23;;
20114;SDS011;10218;42.874;25.320;2022-08-05T04:16:32;7.13;;;5.30;;
20114;SDS011;10218;42.874;25.320;2022-08-05T04:19:02;5.70;;;4.90;;
20114;SDS011;10218;42.874;25.320;2022-08-05T04:21:29;6.87;;;4.33;;
20114;SDS011;10218;42.874;25.320;2022-08-05T04:23:57;6.00;;;4.80;;
20114;SDS011;10218;42.874;25.320;2022-08-05T04:26:27;5.90;;;3.83;;
20114;SDS011;10218;42.874;25.320;2022-08-05T04:28:54;7.30;;;4.60;;
20114;SDS011;10218;42.874;25.320;2022-08-05T04:31:21;4.70;;;4.20;;
20114;SDS011;10218;42.874;25.320;2022-08-05T04:33:48;6.47;;;4.57;;
20114;SDS011;10218;42.874;25.320;2022-08-05T04:36:15;4.97;;;4.33;;
20114;SDS011;10218;42.874;25.320;2022-08-05T04:38:43;6.70;;;4.40;;
20114;SDS011;10218;42.874;25.320;2022-08-05T04:41:11;7.07;;;4.90;;
20114;SDS011;10218;42.874;25.320;2022-08-05T04:43:38;7.23;;;4.87;;
20114;SDS011;10218;42.874;25.320;2022-08-05T04:46:09;7.00;;;4.60;;
20114;SDS011;10218;42.874;25.320;2022-08-05T04:48:37;6.87;;;4.70;;
20114;SDS011;10218;42.874;25.320;2022-08-05T04:51:04;5.40;;;4.70;;
20114;SDS011;10218;42.874;25.320;2022-08-05T04:53:32;5.00;;;4.00;;
20114;SDS011;10218;42.874;25.320;2022-08-05T04:55:59;7.70;;;5.00;;
20114;SDS011;10218;42.874;25.320;2022-08-05T04:58:27;5.80;;;4.27;;
20114;SDS011;10218;42.874;25.320;2022-08-05T05:00:56;5.17;;;3.97;;
20114;SDS011;10218;42.874;25.320;2022-08-05T05:03:23;5.77;;;4.57;;
20114;SDS011;10218;42.874;25.320;2022-08-05T05:05:50;7.97;;;5.13;;
20114;SDS011;10218;42.874;25.320;2022-08-05T05:08:18;6.13;;;4.63;;
20114;SDS011;10218;42.874;25.320;2022-08-05T05:10:49;5.90;;;4.23;;
20114;SDS011;10218;42.874;25.320;2022-08-05T05:13:17;8.77;;;4.57;;
20114;SDS011;10218;42.874;25.320;2022-08-05T05:15:45;6.50;;;4.53;;
20114;SDS011;10218;42.874;25.320;2022-08-05T05:18:13;5.23;;;4.27;;
20114;SDS011;10218;42.874;25.320;2022-08-05T05:20:42;5.03;;;4.30;;
20114;SDS011;10218;42.874;25.320;2022-08-05T05:23:10;6.43;;;4.23;;
20114;SDS011;10218;42.874;25.320;2022-08-05T05:25:39;5.57;;;4.10;;
20114;SDS011;10218;42.874;25.320;2022-08-05T05:28:08;6.70;;;4.37;;
20114;SDS011;10218;42.874;25.320;2022-08-05T05:30:37;4.93;;;4.40;;
20114;SDS011;10218;42.874;25.320;2022-08-05T05:33:07;5.37;;;4.10;;
20114;SDS011;10218;42.874;25.320;2022-08-05T05:35:35;7.27;;;3.90;;
20114;SDS011;10218;42.874;25.320;2022-08-05T05:38:06;5.90;;;4.20;;
20114;SDS011;10218;42.874;25.320;2022-08-05T05:40:34;5.17;;;3.87;;
20114;SDS011;10218;42.874;25.320;2022-08-05T05:43:02;6.43;;;4.80;;
20114;SDS011;10218;42.874;25.320;2022-08-05T05:45:34;11.70;;;4.87;;
20114;SDS011;10218;42.874;25.320;2022-08-05T05:48:02;12.33;;;6.23;;
20114;SDS011;10218;42.874;25.320;2022-08-05T05:50:34;11.53;;;7.00;;
20114;SDS011;10218;42.874;25.320;2022-08-05T05:53:05;7.57;;;5.20;;
20114;SDS011;10218;42.874;25.320;2022-08-05T05:55:36;10.93;;;5.47;;
20114;SDS011;10218;42.874;25.320;2022-08-05T05:58:06;6.27;;;4.43;;
20114;SDS011;10218;42.874;25.320;2022-08-05T06:00:33;7.87;;;5.40;;
20114;SDS011;10218;42.874;25.320;2022-08-05T06:03:01;8.07;;;4.80;;
20114;SDS011;10218;42.874;25.320;2022-08-05T06:05:28;10.23;;;5.33;;
20114;SDS011;10218;42.874;25.320;2022-08-05T06:07:56;7.47;;;4.87;;
20114;SDS011;10218;42.874;25.320;2022-08-05T06:10:24;7.80;;;5.27;;
20114;SDS011;10218;42.874;25.320;2022-08-05T06:12:51;5.60;;;4.57;;
20114;SDS011;10218;42.874;25.320;2022-08-05T06:15:18;8.20;;;4.60;;
20114;SDS011;10218;42.874;25.320;2022-08-05T06:17:45;5.07;;;4.57;;
20114;SDS011;10218;42.874;25.320;2022-08-05T06:20:12;8.10;;;4.93;;
20114;SDS011;10218;42.874;25.320;2022-08-05T06:22:40;4.93;;;4.17;;
20114;SDS011;10218;42.874;25.320;2022-08-05T06:25:07;9.77;;;4.50;;
20114;SDS011;10218;42.874;25.320;2022-08-05T06:27:35;8.93;;;4.60;;
20114;SDS011;10218;42.874;25.320;2022-08-05T06:30:03;5.20;;;4.40;;
20114;SDS011;10218;42.874;25.320;2022-08-05T06:32:33;6.03;;;4.10;;
20114;SDS011;10218;42.874;25.320;2022-08-05T06:35:00;6.50;;;3.80;;
20114;SDS011;10218;42.874;25.320;2022-08-05T06:37:28;5.30;;;4.53;;
20114;SDS011;10218;42.874;25.320;2022-08-05T06:39:55;8.20;;;4.43;;
20114;SDS011;10218;42.874;25.320;2022-08-05T06:42:22;5.43;;;4.23;;
20114;SDS011;10218;42.874;25.320;2022-08-05T06:44:49;6.70;;;4.60;;
20114;SDS011;10218;42.874;25.320;2022-08-05T06:47:17;6.70;;;3.90;;
20114;SDS011;10218;42.874;25.320;2022-08-05T06:49:44;7.00;;;4.13;;
20114;SDS011;10218;42.874;25.320;2022-08-05T06:52:11;5.27;;;4.20;;
20114;SDS011;10218;42.874;25.320;2022-08-05T06:54:39;5.37;;;3.67;;
20114;SDS011;10218;42.874;25.320;2022-08-05T06:57:06;7.47;;;4.00;;
20114;SDS011;10218;42.874;25.320;2022-08-05T06:59:34;4.70;;;3.60;;
20114;SDS011;10218;42.874;25.320;2022-08-05T07:02:01;4.53;;;3.77;;
20114;SDS011;10218;42.874;25.320;2022-08-05T07:04:28;6.20;;;3.70;;
20114;SDS011;10218;42.874;25.320;2022-08-05T07:06:55;5.37;;;3.97;;
20114;SDS011;10218;42.874;25.320;2022-08-05T07:09:22;9.83;;;4.23;;
20114;SDS011;10218;42.874;25.320;2022-08-05T07:11:49;4.70;;;3.77;;
20114;SDS011;10218;42.874;25.320;2022-08-05T07:14:17;4.10;;;3.70;;
20114;SDS011;10218;42.874;25.320;2022-08-05T07:17:03;5.23;;;3.60;;
20114;SDS011;10218;42.874;25.320;2022-08-05T07:19:40;9.53;;;3.30;;
20114;SDS011;10218;42.874;25.320;2022-08-05T07:22:29;6.63;;;3.70;;
20114;SDS011;10218;42.874;25.320;2022-08-05T07:24:57;4.73;;;3.80;;
20114;SDS011;10218;42.874;25.320;2022-08-05T07:27:26;4.33;;;3.57;;
20114;SDS011;10218;42.874;25.320;2022-08-05T07:29:56;5.63;;;3.43;;
20114;SDS011;10218;42.874;25.320;2022-08-05T07:32:24;7.40;;;3.87;;
20114;SDS011;10218;42.874;25.320;2022-08-05T07:34:51;3.70;;;3.20;;
20114;SDS011;10218;42.874;25.320;2022-08-05T07:37:19;4.60;;;3.20;;
20114;SDS011;10218;42.874;25.320;2022-08-05T07:39:47;5.77;;;3.47;;
20114;SDS011;10218;42.874;25.320;2022-08-05T07:42:14;4.43;;;3.50;;
20114;SDS011;10218;42.874;25.320;2022-08-05T07:44:42;3.80;;;3.00;;
20114;SDS011;10218;42.874;25.320;2022-08-05T07:47:09;6.13;;;3.43;;
20114;SDS011;10218;42.874;25.320;2022-08-05T07:49:36;3.43;;;3.13;;
20114;SDS011;10218;42.874;25.320;2022-08-05T07:52:03;5.30;;;3.10;;
20114;SDS011;10218;42.874;25.320;2022-08-05T07:54:31;3.70;;;3.30;;
20114;SDS011;10218;42.874;25.320;2022-08-05T07:56:58;5.07;;;2.93;;
20114;SDS011;10218;42.874;25.320;2022-08-05T07:59:29;6.47;;;3.33;;
20114;SDS011;10218;42.874;25.320;2022-08-05T08:01:56;4.33;;;3.53;;
20114;SDS011;10218;42.874;25.320;2022-08-05T08:04:24;7.20;;;3.43;;
20114;SDS011;10218;42.874;25.320;2022-08-05T08:06:51;5.23;;;3.30;;
20114;SDS011;10218;42.874;25.320;2022-08-05T08:09:18;6.10;;;3.40;;
20114;SDS011;10218;42.874;25.320;2022-08-05T08:11:46;5.87;;;2.97;;
20114;SDS011;10218;42.874;25.320;2022-08-05T08:14:13;6.53;;;2.90;;
20114;SDS011;10218;42.874;25.320;2022-08-05T08:16:41;8.07;;;3.53;;
20114;SDS011;10218;42.874;25.320;2022-08-05T08:19:08;4.05;;;3.00;;
20114;SDS011;10218;42.874;25.320;2022-08-05T08:21:35;4.75;;;3.45;;
20114;SDS011;10218;42.874;25.320;2022-08-05T08:24:02;5.20;;;3.05;;
20114;SDS011;10218;42.874;25.320;2022-08-05T08:26:34;6.07;;;3.25;;
20114;SDS011;10218;42.874;25.320;2022-08-05T08:29:01;6.45;;;3.35;;
20114;SDS011;10218;42.874;25.320;2022-08-05T08:31:29;6.78;;;3.28;;
20114;SDS011;10218;42.874;25.320;2022-08-05T08:33:56;3.67;;;3.03;;
20114;SDS011;10218;42.874;25.320;2022-08-05T08:36:23;5.43;;;3.40;;
20114;SDS011;10218;42.874;25.320;2022-08-05T08:38:51;3.42;;;3.00;;
20114;SDS011;10218;42.874;25.320;2022-08-05T08:41:21;3.92;;;3.20;;
20114;SDS011;10218;42.874;25.320;2022-08-05T08:43:48;3.47;;;3.10;;
20114;SDS011;10218;42.874;25.320;2022-08-05T08:46:18;4.40;;;3.10;;
20114;SDS011;10218;42.874;25.320;2022-08-05T08:48:47;3.55;;;3.22;;
20114;SDS011;10218;42.874;25.320;2022-08-05T08:51:17;3.33;;;3.03;;
20114;SDS011;10218;42.874;25.320;2022-08-05T08:53:49;4.50;;;2.80;;
20114;SDS011;10218;42.874;25.320;2022-08-05T08:56:17;8.02;;;3.20;;
20114;SDS011;10218;42.874;25.320;2022-08-05T08:58:44;3.80;;;3.03;;
20114;SDS011;10218;42.874;25.320;2022-08-05T09:01:12;3.53;;;3.20;;
20114;SDS011;10218;42.874;25.320;2022-08-05T09:03:40;5.70;;;3.20;;
20114;SDS011;10218;42.874;25.320;2022-08-05T09:06:07;3.28;;;2.97;;
20114;SDS011;10218;42.874;25.320;2022-08-05T09:08:35;3.58;;;3.28;;
20114;SDS011;10218;42.874;25.320;2022-08-05T09:11:02;5.03;;;3.00;;
20114;SDS011;10218;42.874;25.320;2022-08-05T09:13:29;5.00;;;3.12;;
20114;SDS011;10218;42.874;25.320;2022-08-05T09:15:58;7.75;;;3.20;;
20114;SDS011;10218;42.874;25.320;2022-08-05T09:18:25;4.53;;;3.03;;
20114;SDS011;10218;42.874;25.320;2022-08-05T09:20:53;3.83;;;3.03;;
20114;SDS011;10218;42.874;25.320;2022-08-05T09:23:21;4.20;;;3.15;;
20114;SDS011;10218;42.874;25.320;2022-08-05T09:25:49;3.50;;;3.20;;
20114;SDS011;10218;42.874;25.320;2022-08-05T09:28:19;4.70;;;3.50;;
20114;SDS011;10218;42.874;25.320;2022-08-05T09:30:57;3.65;;;3.30;;
20114;SDS011;10218;42.874;25.320;2022-08-05T09:33:31;4.75;;;2.95;;
20114;SDS011;10218;42.874;25.320;2022-08-05T09:36:12;3.53;;;3.20;;
20114;SDS011;10218;42.874;25.320;2022-08-05T09:38:39;4.37;;;3.10;;
20114;SDS011;10218;42.874;25.320;2022-08-05T09:41:24;5.32;;;3.80;;
20114;SDS011;10218;42.874;25.320;2022-08-05T09:43:52;5.93;;;3.40;;
20114;SDS011;10218;42.874;25.320;2022-08-05T09:46:30;5.20;;;3.50;;
20114;SDS011;10218;42.874;25.320;2022-08-05T09:48:59;6.57;;;3.87;;
20114;SDS011;10218;42.874;25.320;2022-08-05T09:51:34;5.65;;;4.15;;
20114;SDS011;10218;42.874;25.320;2022-08-05T09:54:05;4.10;;;3.70;;
20114;SDS011;10218;42.874;25.320;2022-08-05T09:56:35;6.20;;;3.70;;
20114;SDS011;10218;42.874;25.320;2022-08-05T09:59:04;5.20;;;4.35;;
20114;SDS011;10218;42.874;25.320;2022-08-05T10:01:34;6.18;;;3.75;;
20114;SDS011;10218;42.874;25.320;2022-08-05T10:04:04;5.20;;;3.37;;
20114;SDS011;10218;42.874;25.320;2022-08-05T10:06:34;7.37;;;3.70;;
20114;SDS011;10218;42.874;25.320;2022-08-05T10:09:17;7.20;;;3.55;;
20114;SDS011;10218;42.874;25.320;2022-08-05T10:11:47;5.12;;;3.40;;
20114;SDS011;10218;42.874;25.320;2022-08-05T10:14:26;8.30;;;3.60;;
20114;SDS011;10218;42.874;25.320;2022-08-05T10:16:56;3.78;;;3.47;;
20114;SDS011;10218;42.874;25.320;2022-08-05T10:19:38;4.00;;;3.60;;
20114;SDS011;10218;42.874;25.320;2022-08-05T10:22:09;3.75;;;3.20;;
20114;SDS011;10218;42.874;25.320;2022-08-05T10:24:36;5.30;;;3.75;;
20114;SDS011;10218;42.874;25.320;2022-08-05T10:27:03;4.93;;;3.35;;
20114;SDS011;10218;42.874;25.320;2022-08-05T10:29:32;4.75;;;3.35;;
20114;SDS011;10218;42.874;25.320;2022-08-05T10:32:02;3.70;;;3.40;;
20114;SDS011;10218;42.874;25.320;2022-08-05T10:34:29;3.87;;;3.25;;
20114;SDS011;10218;42.874;25.320;2022-08-05T10:36:57;5.70;;;3.70;;
20114;SDS011;10218;42.874;25.320;2022-08-05T10:39:27;3.90;;;3.15;;
20114;SDS011;10218;42.874;25.320;2022-08-05T10:42:17;3.40;;;2.78;;
20114;SDS011;10218;42.874;25.320;2022-08-05T10:44:49;2.95;;;2.67;;
20114;SDS011;10218;42.874;25.320;2022-08-05T10:47:20;3.00;;;2.75;;
20114;SDS011;10218;42.874;25.320;2022-08-05T10:52:40;2.92;;;2.65;;
20114;SDS011;10218;42.874;25.320;2022-08-05T10:55:10;2.95;;;2.58;;
20114;SDS011;10218;42.874;25.320;2022-08-05T10:57:39;4.03;;;2.90;;
20114;SDS011;10218;42.874;25.320;2022-08-05T11:00:08;4.18;;;2.70;;
20114;SDS011;10218;42.874;25.320;2022-08-05T11:02:36;3.37;;;2.83;;
20114;SDS011;10218;42.874;25.320;2022-08-05T11:05:05;4.82;;;2.67;;
20114;SDS011;10218;42.874;25.320;2022-08-05T11:07:54;3.92;;;2.67;;
20114;SDS011;10218;42.874;25.320;2022-08-05T11:10:24;4.87;;;2.50;;
20114;SDS011;10218;42.874;25.320;2022-08-05T11:12:53;3.15;;;2.47;;
20114;SDS011;10218;42.874;25.320;2022-08-05T11:17:49;2.90;;;2.70;;
20114;SDS011;10218;42.874;25.320;2022-08-05T11:35:58;3.47;;;2.40;;
20114;SDS011;10218;42.874;25.320;2022-08-05T11:41:25;14.85;;;2.62;;
20114;SDS011;10218;42.874;25.320;2022-08-05T11:46:32;4.35;;;2.67;;
20114;SDS011;10218;42.874;25.320;2022-08-05T11:49:05;4.37;;;2.70;;
20114;SDS011;10218;42.874;25.320;2022-08-05T11:51:34;5.43;;;2.42;;
20114;SDS011;10218;42.874;25.320;2022-08-05T11:54:01;5.10;;;2.47;;
20114;SDS011;10218;42.874;25.320;2022-08-05T11:56:53;5.95;;;2.75;;
20114;SDS011;10218;42.874;25.320;2022-08-05T11:59:23;2.90;;;2.70;;
20114;SDS011;10218;42.874;25.320;2022-08-05T12:04:23;9.75;;;3.25;;
20114;SDS011;10218;42.874;25.320;2022-08-05T12:06:50;6.07;;;2.90;;
20114;SDS011;10218;42.874;25.320;2022-08-05T12:09:23;5.55;;;2.80;;
20114;SDS011;10218;42.874;25.320;2022-08-05T12:11:52;3.92;;;2.97;;
20114;SDS011;10218;42.874;25.320;2022-08-05T12:14:19;5.62;;;2.72;;
20114;SDS011;10218;42.874;25.320;2022-08-05T12:16:47;3.87;;;2.72;;
20114;SDS011;10218;42.874;25.320;2022-08-05T12:19:15;4.40;;;2.62;;
20114;SDS011;10218;42.874;25.320;2022-08-05T12:21:47;5.97;;;2.25;;
20114;SDS011;10218;42.874;25.320;2022-08-05T12:24:16;3.37;;;2.50;;
20114;SDS011;10218;42.874;25.320;2022-08-05T12:29:17;4.93;;;2.70;;
20114;SDS011;10218;42.874;25.320;2022-08-05T12:31:46;3.00;;;2.65;;
20114;SDS011;10218;42.874;25.320;2022-08-05T12:34:17;2.70;;;2.50;;
20114;SDS011;10218;42.874;25.320;2022-08-05T12:36:45;4.43;;;2.50;;
20114;SDS011;10218;42.874;25.320;2022-08-05T12:39:13;8.20;;;2.58;;
20114;SDS011;10218;42.874;25.320;2022-08-05T12:41:40;5.72;;;3.58;;
20114;SDS011;10218;42.874;25.320;2022-08-05T12:44:09;5.25;;;3.03;;
20114;SDS011;10218;42.874;25.320;2022-08-05T12:46:40;11.25;;;3.00;;
20114;SDS011;10218;42.874;25.320;2022-08-05T12:49:09;5.50;;;3.70;;
20114;SDS011;10218;42.874;25.320;2022-08-05T12:51:49;4.75;;;2.50;;
20114;SDS011;10218;42.874;25.320;2022-08-05T12:56:48;2.72;;;2.50;;
20114;SDS011;10218;42.874;25.320;2022-08-05T12:59:18;3.45;;;2.72;;
20114;SDS011;10218;42.874;25.320;2022-08-05T13:01:59;3.30;;;3.00;;
20114;SDS011;10218;42.874;25.320;2022-08-05T13:04:33;3.05;;;2.85;;
20114;SDS011;10218;42.874;25.320;2022-08-05T13:07:03;9.63;;;2.97;;
20114;SDS011;10218;42.874;25.320;2022-08-05T13:09:39;4.12;;;3.20;;
20114;SDS011;10218;42.874;25.320;2022-08-05T13:12:14;5.00;;;3.05;;
20114;SDS011;10218;42.874;25.320;2022-08-05T13:14:49;4.93;;;3.10;;
20114;SDS011;10218;42.874;25.320;2022-08-05T13:17:21;4.07;;;3.53;;
20114;SDS011;10218;42.874;25.320;2022-08-05T13:22:33;4.70;;;3.50;;
20114;SDS011;10218;42.874;25.320;2022-08-05T13:25:06;4.62;;;3.33;;
20114;SDS011;10218;42.874;25.320;2022-08-05T13:27:42;4.90;;;3.40;;
20114;SDS011;10218;42.874;25.320;2022-08-05T13:30:14;5.97;;;3.00;;
20114;SDS011;10218;42.874;25.320;2022-08-05T13:32:43;3.22;;;2.80;;
20114;SDS011;10218;42.874;25.320;2022-08-05T13:35:14;3.03;;;2.80;;
20114;SDS011;10218;42.874;25.320;2022-08-05T13:37:43;2.85;;;2.55;;
20114;SDS011;10218;42.874;25.320;2022-08-05T13:40:10;4.82;;;2.83;;
20114;SDS011;10218;42.874;25.320;2022-08-05T13:42:37;3.47;;;2.80;;
20114;SDS011;10218;42.874;25.320;2022-08-05T13:45:05;2.90;;;2.67;;
20114;SDS011;10218;42.874;25.320;2022-08-05T13:47:33;6.15;;;2.75;;
20114;SDS011;10218;42.874;25.320;2022-08-05T13:50:02;3.15;;;2.85;;
20114;SDS011;10218;42.874;25.320;2022-08-05T13:52:31;2.95;;;2.58;;
20114;SDS011;10218;42.874;25.320;2022-08-05T13:54:59;2.70;;;2.50;;
20114;SDS011;10218;42.874;25.320;2022-08-05T13:57:26;3.15;;;2.85;;
20114;SDS011;10218;42.874;25.320;2022-08-05T13:59:54;3.80;;;3.03;;
20114;SDS011;10218;42.874;25.320;2022-08-05T14:02:21;3.60;;;3.30;;
20114;SDS011;10218;42.874;25.320;2022-08-05T14:04:48;5.90;;;2.83;;
20114;SDS011;10218;42.874;25.320;2022-08-05T14:07:38;10.90;;;3.45;;
20114;SDS011;10218;42.874;25.320;2022-08-05T14:10:11;2.90;;;2.70;;
20114;SDS011;10218;42.874;25.320;2022-08-05T14:12:42;3.22;;;2.80;;
20114;SDS011;10218;42.874;25.320;2022-08-05T14:15:10;3.00;;;2.70;;
20114;SDS011;10218;42.874;25.320;2022-08-05T14:17:38;7.30;;;3.40;;
20114;SDS011;10218;42.874;25.320;2022-08-05T14:20:05;9.95;;;3.20;;
20114;SDS011;10218;42.874;25.320;2022-08-05T14:22:33;5.40;;;3.75;;
20114;SDS011;10218;42.874;25.320;2022-08-05T14:25:01;3.90;;;3.30;;
20114;SDS011;10218;42.874;25.320;2022-08-05T14:27:29;3.67;;;3.20;;
20114;SDS011;10218;42.874;25.320;2022-08-05T14:29:56;3.40;;;3.10;;
20114;SDS011;10218;42.874;25.320;2022-08-05T14:32:23;3.12;;;2.83;;
20114;SDS011;10218;42.874;25.320;2022-08-05T14:34:51;4.43;;;3.40;;
20114;SDS011;10218;42.874;25.320;2022-08-05T14:37:18;5.43;;;3.25;;
20114;SDS011;10218;42.874;25.320;2022-08-05T14:39:45;5.80;;;3.37;;
20114;SDS011;10218;42.874;25.320;2022-08-05T14:42:12;6.53;;;3.15;;
20114;SDS011;10218;42.874;25.320;2022-08-05T14:44:43;4.30;;;3.10;;
20114;SDS011;10218;42.874;25.320;2022-08-05T14:47:11;6.62;;;3.30;;
20114;SDS011;10218;42.874;25.320;2022-08-05T14:49:38;3.92;;;3.20;;
20114;SDS011;10218;42.874;25.320;2022-08-05T14:52:05;3.90;;;3.50;;
20114;SDS011;10218;42.874;25.320;2022-08-05T14:54:32;5.03;;;3.20;;
20114;SDS011;10218;42.874;25.320;2022-08-05T14:56:59;3.53;;;2.95;;
20114;SDS011;10218;42.874;25.320;2022-08-05T14:59:27;3.50;;;3.20;;
20114;SDS011;10218;42.874;25.320;2022-08-05T15:01:55;6.20;;;3.12;;
20114;SDS011;10218;42.874;25.320;2022-08-05T15:04:23;4.43;;;3.20;;
20114;SDS011;10218;42.874;25.320;2022-08-05T15:06:50;4.40;;;2.97;;
20114;SDS011;10218;42.874;25.320;2022-08-05T15:09:19;5.80;;;3.00;;
20114;SDS011;10218;42.874;25.320;2022-08-05T15:11:47;4.70;;;3.50;;
20114;SDS011;10218;42.874;25.320;2022-08-05T15:14:14;4.43;;;3.30;;
20114;SDS011;10218;42.874;25.320;2022-08-05T15:16:41;4.78;;;2.90;;
20114;SDS011;10218;42.874;25.320;2022-08-05T15:19:09;6.78;;;3.30;;
20114;SDS011;10218;42.874;25.320;2022-08-05T15:21:36;2.97;;;2.72;;
20114;SDS011;10218;42.874;25.320;2022-08-05T15:24:03;3.87;;;2.67;;
20114;SDS011;10218;42.874;25.320;2022-08-05T15:26:30;4.03;;;2.60;;
20114;SDS011;10218;42.874;25.320;2022-08-05T15:28:58;4.15;;;3.00;;
20114;SDS011;10218;42.874;25.320;2022-08-05T15:31:25;3.25;;;2.95;;
20114;SDS011;10218;42.874;25.320;2022-08-05T15:33:52;4.45;;;3.40;;
20114;SDS011;10218;42.874;25.320;2022-08-05T15:36:19;4.85;;;3.15;;